OIMM Airport Information

Runway Information
Runway 13L Length 12503 ft width 148 ft
Elevation 3226 ft Threshold 0 ft Heading 134
Runway 31R Length 12503 ft Width 148 ft
Elevation 3257 ft Threshold 0 ft Heading 314
Runway 13R Length 12877 ft width 148 ft
Elevation 3231 ft Threshold 0 ft Heading 134
Runway 31L Length 12877 ft Width 148 ft
Elevation 3263 ft Threshold 0 ft Heading 314
Airport Frequencies
Type APP Name APP Frequency 127.3 MHZ
Type ATIS Name ATIS Frequency 126.4 MHZ
Type TWR Name TWR Frequency 118.1 MHZ
Airport Navaids
Type TACAN Name Mashhad Frequency 111900 KHZ
Type VOR-DME Name Mashhad Frequency 114000 KHZ
Type NDB Name Mashhad Frequency 385 KHZ
Airport Weather Information & NOTAM
ADDS - METARS form results

(2055 UTC 12 December 2018)
Data provider http://aviationweather.gov/metar/data/
 
METAR text: OIMM 122030Z 23006KT CAVOK 05/00 Q1019 A3010
Conditions at: OIMM (MASHHAD (AFB/CIV, IR) observed 2030 UTC 12 December 2018
Temperature: 5.0°C (41°F)
Dewpoint: 0.0°C (32°F) [RH = 70%]
Pressure (altimeter): 30.09 inches Hg (1019.0 mb)
Winds: from the SW (230 degrees) at 7 MPH (6 knots; 3.1 m/s)
Visibility: 6 or more miles (10+ km)
Ceiling: ceiling and visibility are OK
Clouds: unknown
Weather: no significant weather observed at this time

METAR text: OIMM 122000Z 00000KT CAVOK 05/00 Q1019 A3010
Conditions at: OIMM (MASHHAD (AFB/CIV, IR) observed 2000 UTC 12 December 2018
Temperature: 5.0°C (41°F)
Dewpoint: 0.0°C (32°F) [RH = 70%]
Pressure (altimeter): 30.09 inches Hg (1019.0 mb)
Winds: calm
Visibility: 6 or more miles (10+ km)
Ceiling: ceiling and visibility are OK
Clouds: unknown
Weather: no significant weather observed at this time

Forecast for: OIMM (MASHHAD (AFB/CIV, IR)
Text: TAF OIMM 121745Z 1218/1324 15004MPS 8000 NSC
Forecast period: 1800 UTC 12 December 2018 to 0000 UTC 14 December 2018
Forecast type: FROM: standard forecast or significant change
Winds: from the SSE (150 degrees) at 9 MPH (8 knots; 4.1 m/s)
Visibility: 5 miles (8 km)
Ceiling: unknown
Clouds: missing
Weather: no significant weather forecast for this period
Text: TEMPO 1222/1304 5000 BR
Forecast period: 2200 UTC 12 December 2018 to 0400 UTC 13 December 2018
Forecast type: TEMPORARY: The following changes expected for less than half the time period
Visibility: 3 miles (5 km)
Ceiling: unknown
Clouds: missing
Weather: BR  (mist)